Time;durP1;ratioP1;P1;durP2;ratioP2;P2;SDS_P1;SDS_P2;PMS_P1;PMS_P2;Temp;Humidity;BMP_temperature;BMP_pressure;BME280_temperature;BME280_humidity;BME280_pressure;Samples;Min_cycle;Max_cycle;Signal;HPM_P1;HPM_P2
2023/03/31 00:01:34;;;;;;;4.67;3.03;;;11.30;99.90;;;;;;5095904;28;20173;-69
2023/03/31 00:04:03;;;;;;;6.37;3.17;;;11.30;99.90;;;;;;5096292;28;20161;-69
2023/03/31 00:06:37;;;;;;;8.00;3.63;;;11.30;99.90;;;;;;5094255;28;20180;-69
2023/03/31 00:09:17;;;;;;;10.00;3.40;;;11.20;99.90;;;;;;5094244;28;20227;-69
2023/03/31 00:11:44;;;;;;;8.00;3.70;;;11.20;99.90;;;;;;5095490;28;20207;-69
2023/03/31 00:14:11;;;;;;;8.73;3.80;;;11.20;99.90;;;;;;5095466;28;20166;-69
2023/03/31 00:16:38;;;;;;;7.43;3.30;;;11.10;99.90;;;;;;5095389;28;20169;-69
2023/03/31 00:19:04;;;;;;;3.67;2.90;;;11.10;99.90;;;;;;5095641;28;20246;-69
2023/03/31 00:21:33;;;;;;;9.27;3.57;;;11.10;99.90;;;;;;5093832;28;20181;-69
2023/03/31 00:24:08;;;;;;;8.23;3.20;;;11.10;99.90;;;;;;5095191;28;20177;-69
2023/03/31 00:26:34;;;;;;;5.40;3.20;;;11.00;99.90;;;;;;5095587;28;20153;-69
2023/03/31 00:29:01;;;;;;;5.00;3.27;;;11.00;99.90;;;;;;5095101;28;20181;-69
2023/03/31 00:31:28;;;;;;;8.97;3.50;;;11.00;99.90;;;;;;5095221;28;20191;-69
2023/03/31 00:33:54;;;;;;;5.43;3.25;;;11.00;99.90;;;;;;5095638;28;20540;-69
2023/03/31 00:36:26;;;;;;;4.15;3.08;;;10.90;99.90;;;;;;5093659;28;20181;-69
2023/03/31 00:39:07;;;;;;;7.72;3.50;;;10.90;99.90;;;;;;5093752;28;20316;-69
2023/03/31 00:41:35;;;;;;;8.93;3.45;;;10.80;99.90;;;;;;5094992;28;20161;-69
2023/03/31 00:44:12;;;;;;;9.65;3.58;;;10.80;99.90;;;;;;5094550;28;20181;-69
2023/03/31 00:46:44;;;;;;;5.07;3.13;;;10.80;99.90;;;;;;5095563;28;20185;-69
2023/03/31 00:49:20;;;;;;;7.18;3.38;;;10.80;99.90;;;;;;5095105;28;20653;-69
2023/03/31 00:51:50;;;;;;;5.22;3.08;;;10.80;99.90;;;;;;5095155;28;20218;-69
2023/03/31 00:54:18;;;;;;;6.50;3.08;;;10.80;99.90;;;;;;5095106;28;20649;-69
2023/03/31 00:56:46;;;;;;;5.22;3.10;;;10.80;99.90;;;;;;5093685;28;20177;-69
2023/03/31 00:59:13;;;;;;;7.93;3.38;;;10.80;99.90;;;;;;5094691;28;20299;-69
2023/03/31 01:01:43;;;;;;;5.18;3.30;;;10.80;99.90;;;;;;5094597;28;20200;-69
2023/03/31 01:04:12;;;;;;;4.95;3.10;;;10.70;99.90;;;;;;5093143;28;20250;-69
2023/03/31 01:06:45;;;;;;;8.05;3.10;;;10.70;99.90;;;;;;5092407;28;20177;-70
2023/03/31 01:09:12;;;;;;;6.32;3.22;;;10.70;99.90;;;;;;5094313;28;20192;-69
2023/03/31 01:11:39;;;;;;;6.07;3.40;;;10.70;99.90;;;;;;5095007;28;20169;-69
2023/03/31 01:14:05;;;;;;;3.42;2.90;;;10.70;99.90;;;;;;5093159;28;20173;-69
2023/03/31 01:16:32;;;;;;;7.53;3.30;;;10.70;99.90;;;;;;5094606;28;20165;-69
2023/03/31 01:18:58;;;;;;;6.65;3.20;;;10.70;99.90;;;;;;5094505;28;20556;-69
2023/03/31 01:21:52;;;;;;;8.23;4.20;;;10.70;99.90;;;;;;5094343;28;20709;-70
2023/03/31 01:24:48;;;;;;;3.63;3.30;;;10.70;99.90;;;;;;5094207;28;20189;-69
2023/03/31 01:27:23;;;;;;;9.67;3.53;;;10.70;99.90;;;;;;5094614;28;20614;-69
2023/03/31 01:30:36;;;;;;;8.33;3.20;;;10.70;99.90;;;;;;5093960;28;20184;-69
2023/03/31 01:33:05;;;;;;;5.38;3.20;;;10.70;99.90;;;;;;5094384;28;20240;-70
2023/03/31 01:36:20;;;;;;;6.53;3.60;;;10.70;99.90;;;;;;5094363;28;20580;-69
2023/03/31 01:39:00;;;;;;;7.53;3.40;;;10.60;99.90;;;;;;5054785;28;20189;-70
2023/03/31 01:42:03;;;;;;;5.93;3.47;;;10.40;99.90;;;;;;5091459;28;20201;-69
2023/03/31 01:44:42;;;;;;;5.90;3.43;;;10.30;99.90;;;;;;5093931;28;20193;-69
2023/03/31 01:47:27;;;;;;;3.90;3.40;;;10.30;99.90;;;;;;5092821;28;20215;-69
2023/03/31 01:50:04;;;;;;;5.97;3.50;;;10.20;99.90;;;;;;5093885;28;20212;-69
2023/03/31 01:52:42;;;;;;;5.97;3.67;;;10.20;99.90;;;;;;5093757;28;20176;-69
2023/03/31 01:55:25;;;;;;;6.97;3.53;;;10.20;99.90;;;;;;5093889;28;20498;-70
2023/03/31 01:58:02;;;;;;;7.00;3.43;;;10.20;99.90;;;;;;5093780;28;20184;-69
2023/03/31 02:00:32;;;;;;;6.13;3.77;;;10.10;99.90;;;;;;5093664;28;20605;-70
2023/03/31 02:03:21;;;;;;;9.40;3.63;;;10.10;99.90;;;;;;5093887;28;20197;-70
2023/03/31 02:05:55;;;;;;;7.63;3.83;;;10.00;99.90;;;;;;5092273;28;20204;-69
2023/03/31 02:08:26;;;;;;;5.93;3.73;;;10.00;99.90;;;;;;5093556;28;20162;-69
2023/03/31 02:10:52;;;;;;;6.63;3.70;;;10.00;99.90;;;;;;5093416;28;20208;-70
2023/03/31 02:13:21;;;;;;;10.90;3.60;;;10.00;99.90;;;;;;5092171;28;20538;-70
2023/03/31 02:15:52;;;;;;;6.40;3.70;;;10.00;99.90;;;;;;5093691;28;20175;-69
2023/03/31 02:18:24;;;;;;;5.87;3.47;;;10.00;99.90;;;;;;5091729;28;20580;-70
2023/03/31 02:20:53;;;;;;;8.87;3.57;;;10.00;99.90;;;;;;5092144;28;20284;-70
2023/03/31 02:23:25;;;;;;;7.43;3.60;;;10.00;99.90;;;;;;5091997;28;20192;-69
2023/03/31 02:25:54;;;;;;;7.47;3.90;;;10.00;99.90;;;;;;5093237;28;20604;-70
2023/03/31 02:28:26;;;;;;;7.30;3.47;;;10.00;99.90;;;;;;5093262;28;20165;-70
2023/03/31 02:31:16;;;;;;;5.13;3.50;;;10.00;99.90;;;;;;5093453;28;20200;-70
2023/03/31 02:33:42;;;;;;;9.77;3.60;;;10.00;99.90;;;;;;5093266;28;20177;-70
2023/03/31 02:36:08;;;;;;;10.57;4.13;;;9.90;99.90;;;;;;5093872;28;20553;-69
2023/03/31 02:38:40;;;;;;;8.73;3.70;;;9.90;99.90;;;;;;5093066;28;20175;-70
2023/03/31 02:41:06;;;;;;;8.70;3.70;;;9.90;99.90;;;;;;5093244;28;20165;-70
2023/03/31 02:43:32;;;;;;;8.33;3.90;;;9.90;99.90;;;;;;5093756;28;20180;-70
2023/03/31 02:45:58;;;;;;;12.80;4.53;;;9.90;99.90;;;;;;5093628;28;20201;-70
2023/03/31 02:48:28;;;;;;;6.67;3.77;;;10.00;99.90;;;;;;5093335;28;20215;-70
2023/03/31 02:51:32;;;;;;;10.57;3.80;;;10.00;99.90;;;;;;5093333;28;20680;-70
2023/03/31 02:54:03;;;;;;;11.47;3.90;;;10.00;99.90;;;;;;5091821;28;20238;-70
2023/03/31 02:57:08;;;;;;;10.33;4.27;;;10.10;99.90;;;;;;5093101;28;20161;-70
2023/03/31 02:59:46;;;;;;;14.47;5.17;;;10.10;99.90;;;;;;5091654;28;20205;-69
2023/03/31 03:02:39;;;;;;;9.67;3.97;;;10.20;99.90;;;;;;5093316;28;20592;-70
2023/03/31 03:05:24;;;;;;;6.27;4.03;;;10.20;99.90;;;;;;5093315;28;20189;-70
2023/03/31 03:08:19;;;;;;;11.77;4.10;;;10.20;99.90;;;;;;5092944;28;20640;-69
2023/03/31 03:11:11;;;;;;;12.43;3.95;;;10.30;99.90;;;;;;5092898;28;20221;-70
2023/03/31 03:13:46;;;;;;;11.37;3.83;;;10.20;99.90;;;;;;5091361;28;20703;-69
2023/03/31 03:16:26;;;;;;;9.37;4.07;;;10.30;99.90;;;;;;5092887;28;20161;-70
2023/03/31 03:19:04;;;;;;;7.30;4.03;;;10.20;99.90;;;;;;5091680;28;20247;-69
2023/03/31 03:21:31;;;;;;;6.63;3.77;;;10.20;99.90;;;;;;5093241;28;20161;-70
2023/03/31 03:23:57;;;;;;;9.23;4.00;;;10.20;99.90;;;;;;5092866;28;20195;-70
2023/03/31 03:26:26;;;;;;;7.77;4.10;;;10.20;99.90;;;;;;5091883;28;20209;-67
2023/03/31 03:28:53;;;;;;;8.57;3.43;;;10.20;99.90;;;;;;5092944;28;20645;-68
2023/03/31 03:31:22;;;;;;;11.20;3.87;;;10.20;99.90;;;;;;5094830;28;20204;-67
2023/03/31 03:33:48;;;;;;;8.50;4.00;;;10.20;99.90;;;;;;5094961;28;20180;-67
2023/03/31 03:36:15;;;;;;;6.90;3.83;;;10.20;99.90;;;;;;5096289;28;20234;-67
2023/03/31 03:38:40;;;;;;;8.03;4.00;;;10.20;99.90;;;;;;5096061;28;20222;-67
2023/03/31 03:41:06;;;;;;;5.80;3.70;;;10.20;99.90;;;;;;5094911;28;20185;-67
2023/03/31 03:43:32;;;;;;;8.50;4.53;;;10.30;99.90;;;;;;5094782;28;20246;-67
2023/03/31 03:45:58;;;;;;;10.87;4.30;;;10.20;99.90;;;;;;5096196;28;20207;-67
2023/03/31 03:48:24;;;;;;;12.33;4.37;;;10.20;99.90;;;;;;5096027;28;20173;-67
2023/03/31 03:50:51;;;;;;;12.03;4.10;;;10.20;99.90;;;;;;5094638;28;20235;-67
2023/03/31 03:53:17;;;;;;;9.53;3.70;;;10.30;99.90;;;;;;5095961;28;20180;-67
2023/03/31 03:55:43;;;;;;;9.63;3.90;;;10.20;99.90;;;;;;5094557;28;20177;-67
2023/03/31 03:58:09;;;;;;;11.50;3.77;;;10.20;99.90;;;;;;5095901;28;20231;-67
2023/03/31 04:00:35;;;;;;;8.00;4.03;;;10.30;99.90;;;;;;5095704;28;20290;-67
2023/03/31 04:03:01;;;;;;;6.23;3.80;;;10.30;99.90;;;;;;5094446;28;20660;-67
2023/03/31 04:05:27;;;;;;;4.67;3.40;;;10.30;99.90;;;;;;5094388;28;20222;-67
2023/03/31 04:07:53;;;;;;;10.93;3.60;;;10.30;99.90;;;;;;5095689;28;20166;-67
2023/03/31 04:10:18;;;;;;;7.13;3.50;;;10.30;99.90;;;;;;5095980;28;20193;-67
2023/03/31 04:12:44;;;;;;;12.13;4.07;;;10.30;99.90;;;;;;5095816;28;20223;-67
2023/03/31 04:15:10;;;;;;;13.40;4.40;;;10.30;99.90;;;;;;5096062;28;20562;-67
2023/03/31 04:17:36;;;;;;;7.50;3.70;;;10.30;99.90;;;;;;5095732;28;20253;-67
2023/03/31 04:20:08;;;;;;;7.20;4.07;;;10.30;99.90;;;;;;5095995;28;20196;-67
2023/03/31 04:22:39;;;;;;;8.73;3.77;;;10.30;99.90;;;;;;5095463;28;20662;-67
2023/03/31 04:25:16;;;;;;;8.20;3.90;;;10.20;99.90;;;;;;5094366;28;20209;-69
2023/03/31 04:27:53;;;;;;;5.57;3.70;;;10.20;99.90;;;;;;5095551;28;20157;-69
2023/03/31 04:30:29;;;;;;;7.97;3.47;;;10.30;99.90;;;;;;5095457;28;20197;-69
2023/03/31 04:32:57;;;;;;;8.20;4.00;;;10.30;99.90;;;;;;5094385;28;20172;-69
2023/03/31 04:35:25;;;;;;;5.60;3.80;;;10.30;99.90;;;;;;5095386;28;20248;-69
2023/03/31 04:37:57;;;;;;;7.93;3.80;;;10.30;99.90;;;;;;5094084;28;20637;-72
2023/03/31 04:40:24;;;;;;;6.57;3.50;;;10.30;99.90;;;;;;5093853;28;20208;-71
2023/03/31 04:42:50;;;;;;;8.63;3.70;;;10.30;99.90;;;;;;5093592;28;20205;-69
2023/03/31 04:45:16;;;;;;;10.53;3.90;;;10.20;99.90;;;;;;5093684;28;20300;-69
2023/03/31 04:47:42;;;;;;;6.10;3.40;;;10.20;99.90;;;;;;5094972;28;20205;-70
2023/03/31 04:50:12;;;;;;;5.63;3.57;;;10.20;99.90;;;;;;5093677;28;20201;-69
2023/03/31 04:52:38;;;;;;;8.43;3.70;;;10.20;99.90;;;;;;5093545;28;20185;-69
2023/03/31 04:55:05;;;;;;;9.40;3.90;;;10.20;99.90;;;;;;5093623;28;20181;-70
2023/03/31 04:57:30;;;;;;;7.00;3.90;;;10.20;99.90;;;;;;5093529;28;20195;-69
2023/03/31 04:59:56;;;;;;;10.93;4.10;;;10.20;99.90;;;;;;5094770;28;20279;-69
2023/03/31 05:02:22;;;;;;;9.30;4.17;;;10.30;99.90;;;;;;5093598;28;20183;-69
2023/03/31 05:04:51;;;;;;;8.07;3.57;;;10.30;99.90;;;;;;5093301;28;20209;-69
2023/03/31 05:07:18;;;;;;;8.60;4.20;;;10.30;99.90;;;;;;5093185;28;20177;-69
2023/03/31 05:09:44;;;;;;;7.87;3.93;;;10.30;99.90;;;;;;5093347;28;20203;-69
2023/03/31 05:12:10;;;;;;;12.10;4.13;;;10.30;99.90;;;;;;5094850;28;20189;-69
2023/03/31 05:14:36;;;;;;;8.37;3.63;;;10.20;99.90;;;;;;5093235;28;20188;-69
2023/03/31 05:17:02;;;;;;;6.80;3.93;;;10.20;99.90;;;;;;5095001;28;20205;-66
2023/03/31 05:19:29;;;;;;;9.97;4.23;;;10.30;99.90;;;;;;5094822;28;20192;-66
2023/03/31 05:21:55;;;;;;;10.60;3.47;;;10.20;99.90;;;;;;5094612;28;20203;-66
2023/03/31 05:24:21;;;;;;;6.97;3.43;;;10.20;99.90;;;;;;5093049;28;20185;-66
2023/03/31 05:26:51;;;;;;;5.17;3.50;;;10.20;99.90;;;;;;5092944;28;20177;-66
2023/03/31 05:29:18;;;;;;;4.93;3.60;;;10.20;99.90;;;;;;5094828;28;20193;-66
2023/03/31 05:31:44;;;;;;;11.70;4.17;;;10.10;99.90;;;;;;5093129;28;20180;-66
2023/03/31 05:34:10;;;;;;;4.53;3.37;;;10.10;99.90;;;;;;5094548;28;20169;-67
2023/03/31 05:36:36;;;;;;;9.50;3.73;;;10.00;99.90;;;;;;5095803;28;20184;-67
2023/03/31 05:39:03;;;;;;;5.87;3.30;;;9.90;99.90;;;;;;5095446;28;20584;-67
2023/03/31 05:41:29;;;;;;;6.80;3.50;;;9.80;99.90;;;;;;5093415;28;20181;-67
2023/03/31 05:43:55;;;;;;;8.63;3.80;;;9.80;99.90;;;;;;5094277;28;20173;-66
2023/03/31 05:46:21;;;;;;;7.97;4.07;;;9.80;99.90;;;;;;5092655;28;20617;-66
2023/03/31 05:48:47;;;;;;;5.50;3.03;;;9.70;99.90;;;;;;5094143;28;20170;-67
2023/03/31 05:51:12;;;;;;;5.80;3.40;;;9.70;99.90;;;;;;5095744;28;20660;-66
2023/03/31 05:53:38;;;;;;;5.03;3.60;;;9.70;99.90;;;;;;5093275;28;20181;-66
2023/03/31 05:56:08;;;;;;;7.03;3.93;;;9.60;99.90;;;;;;5094108;28;20226;-67
2023/03/31 05:58:35;;;;;;;7.00;3.60;;;9.60;99.90;;;;;;5092472;28;20200;-66
2023/03/31 06:01:06;;;;;;;5.27;3.70;;;9.60;99.90;;;;;;5093692;28;20756;-66
2023/03/31 06:03:33;;;;;;;4.83;3.40;;;9.60;99.90;;;;;;5092799;28;20196;-66
2023/03/31 06:06:00;;;;;;;6.50;3.40;;;9.60;99.90;;;;;;5094081;28;20262;-69
2023/03/31 06:08:27;;;;;;;9.03;3.90;;;9.60;99.90;;;;;;5093320;28;20209;-69
2023/03/31 06:10:52;;;;;;;6.20;3.53;;;9.70;99.90;;;;;;5094044;28;20202;-69
2023/03/31 06:13:19;;;;;;;8.37;4.00;;;9.70;99.90;;;;;;5092251;28;20173;-72
2023/03/31 06:15:55;;;;;;;4.23;3.30;;;9.70;99.90;;;;;;5092474;28;20657;-71
2023/03/31 06:18:21;;;;;;;9.50;3.37;;;9.70;99.90;;;;;;5094039;28;20157;-71
2023/03/31 06:20:47;;;;;;;6.50;3.47;;;9.90;99.90;;;;;;5093099;28;20560;-71
2023/03/31 06:23:13;;;;;;;5.70;3.33;;;9.90;99.90;;;;;;5093537;28;20185;-71
2023/03/31 06:25:39;;;;;;;6.10;3.43;;;9.90;99.90;;;;;;5094218;28;20231;-71
2023/03/31 06:28:07;;;;;;;6.40;3.13;;;9.90;99.90;;;;;;5093515;28;20173;-71
2023/03/31 06:30:33;;;;;;;5.53;3.53;;;10.00;99.90;;;;;;5092252;28;20203;-71
2023/03/31 06:32:59;;;;;;;6.17;3.33;;;10.00;99.90;;;;;;5092280;28;20184;-71
2023/03/31 06:35:25;;;;;;;7.93;4.30;;;10.00;99.90;;;;;;5093527;28;20181;-71
2023/03/31 06:37:51;;;;;;;6.77;3.90;;;10.00;99.90;;;;;;5092097;28;20263;-71
2023/03/31 06:40:17;;;;;;;3.73;3.20;;;10.10;99.90;;;;;;5092290;28;20687;-71
2023/03/31 06:42:43;;;;;;;3.57;3.10;;;10.10;99.90;;;;;;5092193;28;20177;-71
2023/03/31 06:45:09;;;;;;;5.10;3.20;;;10.10;99.90;;;;;;5093328;28;20201;-71
2023/03/31 06:47:37;;;;;;;5.73;2.97;;;10.20;99.90;;;;;;5093632;28;20580;-71
2023/03/31 06:50:03;;;;;;;6.57;3.40;;;10.10;99.90;;;;;;5093267;28;20189;-70
2023/03/31 06:52:30;;;;;;;5.23;3.27;;;10.10;99.90;;;;;;5093528;28;20185;-70
2023/03/31 06:54:56;;;;;;;4.77;3.20;;;10.10;99.90;;;;;;5093333;28;20188;-71
2023/03/31 06:57:22;;;;;;;3.70;3.30;;;10.10;99.90;;;;;;5093369;28;20185;-71
2023/03/31 06:59:47;;;;;;;4.20;3.03;;;10.10;99.90;;;;;;5092046;28;20300;-71
2023/03/31 07:02:13;;;;;;;3.43;3.10;;;10.10;99.90;;;;;;5093439;28;20203;-71
2023/03/31 07:04:39;;;;;;;6.03;3.57;;;10.10;99.90;;;;;;5094422;28;20212;-70
2023/03/31 07:07:05;;;;;;;4.30;3.20;;;10.10;99.90;;;;;;5097339;28;20177;-70
2023/03/31 07:09:31;;;;;;;3.50;3.20;;;10.10;99.90;;;;;;5095683;28;20193;-71
2023/03/31 07:11:56;;;;;;;4.60;3.33;;;10.10;99.90;;;;;;5096879;28;20188;-71
2023/03/31 07:14:22;;;;;;;4.87;3.30;;;10.10;99.90;;;;;;5097060;28;20173;-71
2023/03/31 07:16:49;;;;;;;3.83;3.10;;;10.00;99.90;;;;;;5095571;28;20270;-71
2023/03/31 07:19:15;;;;;;;5.93;3.47;;;9.90;99.90;;;;;;5096646;28;20653;-71
2023/03/31 07:21:41;;;;;;;7.13;3.57;;;9.90;99.90;;;;;;5096730;28;20211;-71
2023/03/31 07:24:07;;;;;;;9.10;3.53;;;9.80;99.90;;;;;;5096643;28;20186;-71
2023/03/31 07:26:33;;;;;;;3.50;3.20;;;9.80;99.90;;;;;;5095321;28;20205;-71
2023/03/31 07:28:58;;;;;;;6.20;3.30;;;9.70;99.90;;;;;;5097024;28;20548;-70
2023/03/31 07:31:25;;;;;;;4.77;3.40;;;9.60;99.90;;;;;;5096695;28;20173;-71
2023/03/31 07:33:50;;;;;;;4.13;2.93;;;9.60;99.90;;;;;;5096712;28;20165;-71
2023/03/31 07:36:17;;;;;;;6.53;3.80;;;9.50;99.90;;;;;;5096550;28;20180;-71
2023/03/31 07:38:45;;;;;;;6.70;3.43;;;9.50;99.90;;;;;;5094986;28;20177;-71
2023/03/31 07:41:17;;;;;;;5.40;2.90;;;9.50;99.90;;;;;;5096701;28;20177;-69
2023/03/31 07:43:43;;;;;;;5.60;3.07;;;9.50;99.90;;;;;;5096548;28;20612;-69
2023/03/31 07:46:16;;;;;;;8.67;3.30;;;9.40;99.90;;;;;;5096080;28;20564;-69
2023/03/31 07:48:42;;;;;;;4.27;3.60;;;9.40;99.90;;;;;;5096066;28;20238;-68
2023/03/31 07:51:08;;;;;;;5.77;3.03;;;9.40;99.90;;;;;;5096311;28;20629;-68
2023/03/31 07:53:35;;;;;;;3.37;3.07;;;9.40;99.90;;;;;;5094591;28;20185;-68
2023/03/31 07:56:01;;;;;;;3.63;3.20;;;9.30;99.90;;;;;;5096033;28;20173;-69
2023/03/31 07:58:27;;;;;;;4.57;3.53;;;9.30;99.90;;;;;;5094534;28;20257;-68
2023/03/31 08:00:52;;;;;;;8.30;3.60;;;9.30;99.90;;;;;;5094419;28;20203;-68
2023/03/31 08:03:18;;;;;;;8.77;3.20;;;9.20;99.90;;;;;;5094515;28;20181;-69
2023/03/31 08:05:44;;;;;;;4.03;3.30;;;9.20;99.90;;;;;;5095727;28;20235;-69
2023/03/31 08:08:09;;;;;;;5.70;3.40;;;9.20;99.90;;;;;;5095755;28;20664;-68
2023/03/31 08:10:35;;;;;;;5.30;3.20;;;9.20;99.90;;;;;;5095901;28;20231;-68
2023/03/31 08:13:01;;;;;;;5.53;3.40;;;9.20;99.90;;;;;;5095683;28;20181;-69
2023/03/31 08:15:27;;;;;;;3.53;3.23;;;9.20;99.90;;;;;;5094184;28;20185;-69
2023/03/31 08:17:53;;;;;;;4.60;3.30;;;9.20;99.90;;;;;;5094740;28;20181;-69
2023/03/31 08:20:18;;;;;;;5.70;3.13;;;9.20;99.90;;;;;;5094356;28;20201;-69
2023/03/31 08:22:44;;;;;;;5.60;3.00;;;9.30;99.90;;;;;;5094212;28;20185;-69
2023/03/31 08:25:10;;;;;;;3.33;2.90;;;9.40;99.90;;;;;;5095223;28;20197;-69
2023/03/31 08:27:38;;;;;;;6.10;3.30;;;9.50;99.90;;;;;;5095396;28;20169;-68
2023/03/31 08:30:06;;;;;;;7.90;3.40;;;9.50;99.90;;;;;;5095322;28;20680;-68
2023/03/31 08:32:33;;;;;;;11.50;3.60;;;9.70;99.90;;;;;;5095569;28;20173;-69
2023/03/31 08:34:59;;;;;;;6.93;3.53;;;9.80;99.90;;;;;;5095285;28;20223;-69
2023/03/31 08:37:27;;;;;;;5.23;2.90;;;9.90;99.90;;;;;;5095311;28;20197;-69
2023/03/31 08:39:54;;;;;;;6.93;3.30;;;10.00;99.90;;;;;;5095301;28;20653;-69
2023/03/31 08:42:27;;;;;;;3.27;3.00;;;10.10;99.90;;;;;;5095288;28;20185;-69
2023/03/31 08:45:22;;;;;;;3.60;3.30;;;10.10;99.90;;;;;;5094861;28;20197;-69
2023/03/31 08:47:52;;;;;;;5.13;3.13;;;10.20;99.90;;;;;;5095293;28;20165;-69
2023/03/31 08:50:26;;;;;;;3.97;2.80;;;10.30;99.90;;;;;;5095024;28;20219;-68
2023/03/31 08:53:12;;;;;;;3.70;2.70;;;10.40;99.90;;;;;;5093605;28;20272;-68
2023/03/31 08:55:44;;;;;;;6.30;3.23;;;10.50;99.90;;;;;;5093674;28;20192;-68
2023/03/31 08:58:40;;;;;;;4.73;3.13;;;10.50;99.90;;;;;;5095467;28;20561;-68
2023/03/31 09:01:24;;;;;;;3.47;3.10;;;10.50;99.90;;;;;;5095617;28;20161;-68
2023/03/31 09:04:11;;;;;;;3.83;3.17;;;10.60;99.90;;;;;;5094798;28;20195;-69
2023/03/31 09:06:39;;;;;;;3.73;3.10;;;10.60;99.90;;;;;;5093381;28;20231;-68
2023/03/31 09:09:10;;;;;;;6.97;3.43;;;10.60;99.90;;;;;;5094538;28;20191;-68
2023/03/31 09:11:54;;;;;;;4.90;3.60;;;10.70;99.90;;;;;;5093421;28;20260;-69
2023/03/31 09:14:30;;;;;;;6.47;3.20;;;10.80;99.90;;;;;;5093220;28;20172;-68
2023/03/31 09:17:30;;;;;;;4.33;3.37;;;10.90;99.90;;;;;;5094481;28;20541;-68
2023/03/31 09:20:08;;;;;;;5.10;3.30;;;11.00;99.90;;;;;;5093105;28;20205;-68
2023/03/31 09:22:40;;;;;;;8.83;3.23;;;11.10;99.90;;;;;;5092958;28;20253;-68
2023/03/31 09:25:13;;;;;;;4.63;3.53;;;11.10;99.90;;;;;;5094888;28;20197;-68
2023/03/31 09:27:42;;;;;;;4.57;3.13;;;11.10;99.90;;;;;;5093983;28;20650;-68
2023/03/31 09:30:30;;;;;;;6.77;3.70;;;11.20;99.90;;;;;;5094029;28;20191;-68
2023/03/31 09:33:22;;;;;;;4.53;3.40;;;11.30;99.90;;;;;;5094221;28;20170;-68
2023/03/31 09:35:48;;;;;;;4.40;3.50;;;11.40;99.90;;;;;;5094419;28;20183;-68
2023/03/31 09:38:15;;;;;;;6.93;3.30;;;11.40;99.90;;;;;;5094399;28;20264;-69
2023/03/31 09:40:41;;;;;;;3.97;3.07;;;11.40;99.90;;;;;;5094054;28;20223;-68
2023/03/31 09:43:27;;;;;;;3.47;3.20;;;11.30;99.90;;;;;;5093155;28;20775;-67
2023/03/31 09:45:55;;;;;;;6.07;3.60;;;11.30;99.90;;;;;;5094975;28;20208;-69
2023/03/31 09:48:25;;;;;;;5.27;3.33;;;11.20;99.90;;;;;;5092721;28;20177;-70
2023/03/31 09:51:04;;;;;;;5.20;3.70;;;11.20;99.90;;;;;;5093848;28;20194;-70
2023/03/31 09:53:40;;;;;;;4.47;3.20;;;11.30;99.90;;;;;;5093955;28;20176;-69
2023/03/31 09:56:08;;;;;;;3.47;3.17;;;11.30;99.90;;;;;;5092624;28;20184;-70
2023/03/31 09:58:41;;;;;;;6.07;4.00;;;11.40;99.90;;;;;;5093929;28;20235;-70
2023/03/31 10:01:10;;;;;;;6.20;3.50;;;11.40;99.90;;;;;;5093919;28;20225;-69
2023/03/31 10:03:50;;;;;;;5.20;3.60;;;11.60;99.90;;;;;;5094104;28;20268;-70
2023/03/31 10:06:16;;;;;;;3.43;3.00;;;11.70;99.90;;;;;;5093750;28;20205;-69
2023/03/31 10:09:00;;;;;;;3.38;2.92;;;11.80;99.90;;;;;;5094104;28;20260;-70
2023/03/31 10:11:26;;;;;;;3.92;3.10;;;11.90;99.90;;;;;;5093531;28;20184;-69
2023/03/31 10:14:00;;;;;;;5.50;3.20;;;12.00;99.90;;;;;;5093705;28;20295;-69
2023/03/31 10:16:41;;;;;;;7.93;3.60;;;11.90;99.90;;;;;;5093987;28;20165;-69
2023/03/31 10:19:20;;;;;;;6.87;3.83;;;11.70;99.90;;;;;;5092340;28;20211;-69
2023/03/31 10:21:54;;;;;;;10.80;3.70;;;11.60;99.90;;;;;;5092101;28;20267;-69
2023/03/31 10:24:20;;;;;;;7.50;3.53;;;11.50;99.90;;;;;;5093273;28;20185;-70
2023/03/31 10:26:48;;;;;;;5.33;3.33;;;11.40;99.90;;;;;;5093558;28;20177;-70
2023/03/31 10:29:30;;;;;;;5.30;3.80;;;11.40;99.90;;;;;;5094201;28;20710;-67
2023/03/31 10:32:08;;;;;;;7.32;3.53;;;11.40;99.90;;;;;;5094065;28;20594;-67
2023/03/31 10:34:38;;;;;;;8.73;4.20;;;11.50;99.90;;;;;;5093362;28;20186;-67
2023/03/31 10:37:06;;;;;;;8.10;3.60;;;11.60;99.90;;;;;;5093543;28;20179;-68
2023/03/31 10:39:32;;;;;;;7.28;3.75;;;11.70;99.90;;;;;;5094414;28;20250;-67
2023/03/31 10:41:59;;;;;;;7.03;3.60;;;11.80;99.90;;;;;;5096293;28;20173;-67
2023/03/31 10:44:36;;;;;;;7.45;3.83;;;12.00;99.90;;;;;;5097476;28;20196;-67
2023/03/31 10:47:14;;;;;;;7.82;4.22;;;12.10;99.90;;;;;;5096944;28;20173;-71
2023/03/31 10:49:43;;;;;;;8.25;4.70;;;12.20;99.90;;;;;;5099023;28;20545;-71
2023/03/31 10:52:42;;;;;;;5.95;3.85;;;12.30;99.90;;;;;;5097697;28;20236;-70
2023/03/31 10:55:13;;;;;;;7.63;4.25;;;12.40;99.90;;;;;;5097741;28;20162;-71
2023/03/31 10:57:56;;;;;;;10.52;4.57;;;12.40;99.90;;;;;;5097268;28;20203;-71
2023/03/31 11:00:42;;;;;;;11.93;4.93;;;12.40;99.90;;;;;;5097431;28;20201;-71
2023/03/31 11:04:00;;;;;;;11.35;4.10;;;12.10;99.90;;;;;;5097797;28;20161;-72
2023/03/31 11:06:45;;;;;;;10.85;4.13;;;11.70;99.90;;;;;;5067052;28;20235;-72
2023/03/31 11:09:29;;;;;;;9.37;3.90;;;11.20;99.90;;;;;;5096902;28;20193;-72
2023/03/31 11:12:50;;;;;;;9.83;4.43;;;10.90;99.90;;;;;;5095777;28;20188;-72
2023/03/31 11:15:31;;;;;;;12.97;4.63;;;10.70;99.90;;;;;;5060263;28;20216;-71
2023/03/31 11:18:21;;;;;;;9.17;4.77;;;10.60;99.90;;;;;;5096014;28;20545;-71
2023/03/31 11:21:08;;;;;;;13.67;4.20;;;10.70;99.90;;;;;;5097700;28;20197;-72
2023/03/31 11:23:52;;;;;;;9.63;4.20;;;10.70;99.90;;;;;;5098915;28;20224;-71
2023/03/31 11:26:24;;;;;;;12.83;4.40;;;10.80;99.90;;;;;;5098686;28;20608;-73
2023/03/31 11:29:11;;;;;;;9.93;4.37;;;10.80;99.90;;;;;;5096313;28;20268;-71
2023/03/31 11:31:52;;;;;;;11.00;4.30;;;10.90;99.90;;;;;;5097157;28;20183;-72
2023/03/31 11:34:46;;;;;;;11.20;4.37;;;11.30;99.90;;;;;;5097212;28;20157;-72
2023/03/31 11:37:34;;;;;;;17.67;5.57;;;11.60;99.90;;;;;;5096846;28;20181;-71
2023/03/31 11:40:31;;;;;;;11.57;4.63;;;12.00;99.90;;;;;;5085314;28;20552;-69
2023/03/31 11:43:10;;;;;;;10.60;4.63;;;12.30;99.90;;;;;;5076930;28;20192;-69
2023/03/31 11:46:08;;;;;;;13.43;4.65;;;12.40;99.90;;;;;;5096586;28;20565;-66
2023/03/31 11:49:03;;;;;;;12.75;4.47;;;12.30;99.90;;;;;;5088984;28;20191;-66
2023/03/31 11:52:20;;;;;;;7.43;4.22;;;12.10;99.90;;;;;;5094977;28;20225;-66
2023/03/31 11:55:06;;;;;;;7.67;3.07;;;11.80;99.90;;;;;;5037137;28;20650;-66
2023/03/31 11:57:41;;;;;;;3.63;2.93;;;11.20;99.90;;;;;;5090463;28;20203;-67
2023/03/31 12:00:12;;;;;;;4.70;2.90;;;10.70;99.90;;;;;;5094719;28;20367;-66
2023/03/31 12:02:52;;;;;;;4.53;3.07;;;10.30;99.90;;;;;;5095818;28;20173;-67
2023/03/31 12:05:21;;;;;;;4.00;3.00;;;10.10;99.90;;;;;;5094452;28;20307;-67
2023/03/31 12:08:16;;;;;;;4.87;3.33;;;9.90;99.90;;;;;;5095650;28;20169;-67
2023/03/31 12:11:20;;;;;;;6.10;3.33;;;9.70;99.90;;;;;;5090677;28;20647;-67
2023/03/31 12:14:01;;;;;;;3.70;3.00;;;9.60;99.90;;;;;;5092314;28;20242;-67
2023/03/31 12:17:03;;;;;;;6.90;3.20;;;9.60;99.90;;;;;;5094611;28;20238;-67
2023/03/31 12:19:55;;;;;;;4.43;3.43;;;9.50;99.90;;;;;;5091759;28;20695;-67
2023/03/31 12:22:50;;;;;;;5.63;3.00;;;9.50;99.90;;;;;;5096151;28;20188;-67
2023/03/31 12:25:21;;;;;;;4.93;3.13;;;9.60;99.90;;;;;;5086100;28;20221;-67
2023/03/31 12:27:50;;;;;;;5.67;3.43;;;9.60;99.90;;;;;;5096339;28;20158;-67
2023/03/31 12:30:37;;;;;;;8.93;3.50;;;9.70;99.90;;;;;;5094254;28;20209;-67
2023/03/31 12:33:12;;;;;;;5.07;3.60;;;9.90;99.90;;;;;;5096074;28;20221;-67
2023/03/31 12:36:04;;;;;;;10.07;3.50;;;10.00;99.90;;;;;;5095395;28;20167;-67
2023/03/31 12:38:47;;;;;;;6.07;3.63;;;10.10;99.90;;;;;;5095236;28;20166;-67
2023/03/31 12:41:19;;;;;;;9.50;3.80;;;10.30;99.90;;;;;;5095131;28;20532;-67
2023/03/31 12:44:42;;;;;;;6.77;3.40;;;10.30;99.90;;;;;;5093923;28;20207;-67
2023/03/31 12:47:35;;;;;;;7.07;3.47;;;10.50;99.90;;;;;;5035868;28;20198;-67
2023/03/31 12:50:19;;;;;;;9.60;3.70;;;10.70;99.90;;;;;;5036239;28;20205;-67
2023/03/31 12:53:10;;;;;;;7.20;3.60;;;10.90;99.90;;;;;;5090971;28;20200;-67
2023/03/31 12:55:53;;;;;;;4.50;3.37;;;11.00;99.90;;;;;;5093910;28;20170;-67
2023/03/31 12:58:21;;;;;;;8.40;3.55;;;11.10;99.90;;;;;;5094969;28;20238;-67
2023/03/31 13:01:10;;;;;;;8.77;3.80;;;11.10;99.90;;;;;;5094971;28;20197;-67
2023/03/31 13:03:44;;;;;;;5.05;3.72;;;11.10;99.90;;;;;;5094733;28;20170;-67
2023/03/31 13:06:30;;;;;;;6.28;3.80;;;11.00;99.90;;;;;;5094755;28;20564;-67
2023/03/31 13:09:08;;;;;;;5.55;3.35;;;10.90;99.90;;;;;;5090473;28;20570;-67
2023/03/31 13:11:37;;;;;;;7.67;3.80;;;10.90;99.90;;;;;;5093523;28;20508;-73
2023/03/31 13:14:19;;;;;;;10.83;4.27;;;10.80;99.90;;;;;;5093375;28;20185;-67
2023/03/31 13:16:46;;;;;;;4.93;3.72;;;10.80;99.90;;;;;;5094649;28;20169;-69
2023/03/31 13:19:41;;;;;;;7.60;3.60;;;10.90;99.90;;;;;;5093544;28;20205;-69
2023/03/31 13:22:26;;;;;;;8.27;4.03;;;11.00;99.90;;;;;;5095389;28;20172;-70